Upper Saint Clair, Pennsylvania
Current Conditions -  °F | °C
As of 7:45 AM on Monday 26 Jan 2015 (Local Time) from KAGC Reporting Station
Light Snow Light Snow  
Wind Chill: 29°   Ceiling: 600
Heat Index: 29°   Visibility: 1.7mi
Dew Point: 26°   Wind: 3mph
Humidity: 89%   Direction: NA
Pressure: 29.66"   Gusts: NA
Location:  40.3301°N, 80.0824°W
Report Text: KAGC 261245Z AUTO VRB03KT 1 3/4SM -SN BR BKN006 OVC024 M02/M03 A2966 RMK AO2 SNB36 P0000 T10171033 TSNO
Loading
Personal Weather Stations






























Interactive Weather Map New forecast layout! Learn more

10-Day Weather Forecast

Advertisements
Track Severe Weather on mobile